createdAt,value
2023-05-20T00:02:50.544Z,13.91
2023-05-20T00:06:56.181Z,13.89
2023-05-20T00:10:59.106Z,13.87
2023-05-20T00:15:04.433Z,13.90
2023-05-20T00:19:07.767Z,13.94
2023-05-20T00:23:12.174Z,13.97
2023-05-20T00:27:15.106Z,13.93
2023-05-20T00:31:18.193Z,13.96
2023-05-20T00:35:21.670Z,13.99
2023-05-20T00:39:26.737Z,13.94
2023-05-20T00:43:30.288Z,13.92
2023-05-20T00:48:01.584Z,13.88
2023-05-20T00:52:05.741Z,13.85
2023-05-20T00:56:27.522Z,13.83
2023-05-20T01:01:02.232Z,13.85
2023-05-20T01:05:05.893Z,13.86
2023-05-20T01:09:09.339Z,13.87
2023-05-20T01:13:47.083Z,13.88
2023-05-20T01:17:53.474Z,13.90
2023-05-20T01:21:58.827Z,13.88
2023-05-20T01:26:03.060Z,13.88
2023-05-20T01:30:09.145Z,13.87
2023-05-20T01:34:12.530Z,13.85
2023-05-20T01:38:20.408Z,13.80
2023-05-20T01:42:27.864Z,13.77
2023-05-20T01:46:34.083Z,13.77
2023-05-20T01:50:37.109Z,13.76
2023-05-20T01:54:40.399Z,13.74
2023-05-20T01:58:44.853Z,13.67
2023-05-20T02:02:48.172Z,13.62
2023-05-20T02:06:51.354Z,13.58
2023-05-20T02:10:55.062Z,13.53
2023-05-20T02:15:00.946Z,13.45
2023-05-20T02:19:04.832Z,13.36
2023-05-20T02:23:08.633Z,13.28
2023-05-20T02:27:13.226Z,13.23
2023-05-20T02:31:22.959Z,13.16
2023-05-20T02:35:25.969Z,13.08
2023-05-20T02:39:29.710Z,12.99
2023-05-20T02:43:33.108Z,12.96
2023-05-20T02:47:40.891Z,12.91
2023-05-20T02:51:43.983Z,12.87
2023-05-20T02:55:47.979Z,12.83
2023-05-20T02:59:52.497Z,12.74
2023-05-20T03:03:58.484Z,12.66
2023-05-20T03:08:02.262Z,12.60
2023-05-20T03:12:05.504Z,12.56
2023-05-20T03:16:09.033Z,12.51
2023-05-20T03:20:17.783Z,12.44
2023-05-20T03:24:20.697Z,12.40
2023-05-20T03:28:24.338Z,12.36
2023-05-20T03:32:27.663Z,12.29
2023-05-20T03:36:32.454Z,12.26
2023-05-20T03:40:36.040Z,12.22
2023-05-20T03:44:40.002Z,12.20
2023-05-20T03:48:43.495Z,12.17
2023-05-20T03:52:48.808Z,12.13
2023-05-20T03:56:56.573Z,12.11
2023-05-20T04:01:01.158Z,12.09
2023-05-20T04:05:10.222Z,12.07
2023-05-20T04:09:19.805Z,12.07
2023-05-20T04:13:25.294Z,12.06
2023-05-20T04:17:30.248Z,12.06
2023-05-20T04:21:39.056Z,12.06
2023-05-20T04:25:44.663Z,12.05
2023-05-20T04:29:48.645Z,12.02
2023-05-20T04:33:54.952Z,12.04
2023-05-20T04:37:59.394Z,12.07
2023-05-20T04:42:04.866Z,12.11
2023-05-20T04:46:08.931Z,12.14
2023-05-20T04:50:13.554Z,12.18
2023-05-20T04:54:20.401Z,12.18
2023-05-20T04:58:25.943Z,12.21
2023-05-20T05:02:29.854Z,12.22
2023-05-20T05:06:33.346Z,12.20
2023-05-20T05:10:37.211Z,12.26
2023-05-20T05:14:44.799Z,12.33
2023-05-20T05:18:48.292Z,12.35
2023-05-20T05:22:51.982Z,12.39
2023-05-20T05:26:56.601Z,12.44
2023-05-20T05:31:02.328Z,12.52
2023-05-20T05:35:08.133Z,12.59
2023-05-20T05:39:12.132Z,12.67
2023-05-20T05:43:16.240Z,12.80
2023-05-20T05:47:22.635Z,12.84
2023-05-20T05:51:28.111Z,12.97
2023-05-20T05:55:38.119Z,13.10
2023-05-20T05:59:41.633Z,13.25
2023-05-20T06:03:46.793Z,13.39
2023-05-20T06:07:50.336Z,13.70
2023-05-20T06:11:54.869Z,14.34
2023-05-20T06:15:57.801Z,14.86
2023-05-20T06:20:05.878Z,15.40
2023-05-20T06:24:08.721Z,15.90
2023-05-20T06:28:13.079Z,16.30
2023-05-20T06:32:16.658Z,16.65
2023-05-20T06:36:21.061Z,17.11
2023-05-20T06:40:24.275Z,17.50
2023-05-20T06:44:27.318Z,17.91
2023-05-20T06:48:43.965Z,18.27
2023-05-20T06:52:48.750Z,18.65
2023-05-20T06:56:52.686Z,18.96
2023-05-20T07:00:57.758Z,19.18
2023-05-20T07:05:02.479Z,19.52
2023-05-20T07:09:07.780Z,19.80
2023-05-20T07:13:10.771Z,19.92
2023-05-20T07:17:14.155Z,20.05
2023-05-20T07:21:18.042Z,20.33
2023-05-20T07:25:41.192Z,20.60
2023-05-20T07:29:44.601Z,20.86
2023-05-20T07:33:48.536Z,21.06
2023-05-20T07:37:52.277Z,21.30
2023-05-20T07:41:56.774Z,21.34
2023-05-20T07:46:01.237Z,21.62
2023-05-20T07:50:05.888Z,21.68
2023-05-20T07:54:11.820Z,21.67
2023-05-20T07:58:16.051Z,21.79
2023-05-20T08:02:19.772Z,22.11
2023-05-20T08:06:24.414Z,22.23
2023-05-20T08:10:27.793Z,22.23
2023-05-20T08:14:33.402Z,22.53
2023-05-20T08:18:37.799Z,22.81
2023-05-20T08:22:41.572Z,22.68
2023-05-20T08:26:44.737Z,22.73
2023-05-20T08:30:49.474Z,22.93
2023-05-20T08:34:52.263Z,23.18
2023-05-20T08:38:55.755Z,23.52
2023-05-20T08:42:59.439Z,23.99
2023-05-20T08:47:04.770Z,24.20
2023-05-20T08:51:10.551Z,24.55
2023-05-20T08:55:22.787Z,24.88
2023-05-20T08:59:28.559Z,25.07
2023-05-20T09:03:34.156Z,25.11
2023-05-20T09:07:37.094Z,25.05
2023-05-20T09:11:41.239Z,24.80
2023-05-20T09:15:44.342Z,24.44
2023-05-20T09:19:51.029Z,23.78
2023-05-20T09:23:54.185Z,23.58
2023-05-20T09:27:58.003Z,23.72
2023-05-20T09:32:03.124Z,23.60
2023-05-20T09:36:09.660Z,23.36
2023-05-20T09:40:15.227Z,23.36
2023-05-20T09:44:18.359Z,23.52
2023-05-20T09:48:22.308Z,23.83
2023-05-20T09:52:28.811Z,24.19
2023-05-20T09:56:32.910Z,24.54
2023-05-20T10:00:35.943Z,24.77
2023-05-20T10:04:46.410Z,25.10
2023-05-20T10:09:13.630Z,25.51
2023-05-20T10:13:29.231Z,25.75
2023-05-20T10:17:41.033Z,25.98
2023-05-20T10:21:44.240Z,26.08
2023-05-20T10:25:53.984Z,26.43
2023-05-20T10:29:58.322Z,26.44
2023-05-20T10:34:02.616Z,26.65
2023-05-20T10:38:10.389Z,26.52
2023-05-20T10:42:15.614Z,26.36
2023-05-20T10:46:31.228Z,26.00
2023-05-20T10:50:41.627Z,26.05
2023-05-20T10:54:46.730Z,26.09
2023-05-20T10:58:54.835Z,26.19
2023-05-20T11:02:58.623Z,26.00
2023-05-20T11:07:01.667Z,25.74
2023-05-20T11:11:05.850Z,26.03
2023-05-20T11:15:12.998Z,25.86
2023-05-20T11:19:17.003Z,25.55
2023-05-20T11:23:23.410Z,25.66
2023-05-20T11:27:32.648Z,25.95
2023-05-20T11:31:52.156Z,26.11
2023-05-20T11:36:08.742Z,26.24
2023-05-20T11:40:27.114Z,26.60
2023-05-20T11:44:33.231Z,26.90
2023-05-20T11:48:37.496Z,26.97
2023-05-20T11:52:40.454Z,27.42
2023-05-20T11:56:49.369Z,27.17
2023-05-20T12:00:59.111Z,27.26
2023-05-20T12:05:06.995Z,27.26
2023-05-20T12:09:10.394Z,27.07
2023-05-20T12:13:14.431Z,26.84
2023-05-20T12:17:21.734Z,26.93
2023-05-20T12:21:27.641Z,26.37
2023-05-20T12:25:31.972Z,26.28
2023-05-20T12:29:36.946Z,26.49
2023-05-20T12:33:40.277Z,26.56
2023-05-20T12:37:46.080Z,26.27
2023-05-20T12:41:49.642Z,26.36
2023-05-20T12:45:58.632Z,26.77
2023-05-20T12:50:02.401Z,26.96
2023-05-20T12:54:07.192Z,27.16
2023-05-20T12:58:10.455Z,27.16
2023-05-20T13:02:13.844Z,27.07
2023-05-20T13:06:16.793Z,27.08
2023-05-20T13:10:23.414Z,27.03
2023-05-20T13:14:27.885Z,26.81
2023-05-20T13:18:30.930Z,26.71
2023-05-20T13:22:33.950Z,26.72
2023-05-20T13:26:38.242Z,26.61
2023-05-20T13:30:42.735Z,26.40
2023-05-20T13:34:46.943Z,26.19
2023-05-20T13:38:59.130Z,25.66
2023-05-20T13:43:03.305Z,25.48
2023-05-20T13:47:16.784Z,25.05
2023-05-20T13:51:36.596Z,24.65
2023-05-20T13:55:59.694Z,24.43
2023-05-20T14:00:15.073Z,24.41
2023-05-20T14:04:44.932Z,24.36
2023-05-20T14:09:09.141Z,24.13
2023-05-20T14:13:19.248Z,23.86
2023-05-20T14:17:31.616Z,23.72
2023-05-20T14:21:34.755Z,23.75
2023-05-20T14:25:47.266Z,23.66
2023-05-20T14:29:59.168Z,23.61
2023-05-20T14:34:07.485Z,23.70
2023-05-20T14:38:23.130Z,23.80
2023-05-20T14:42:31.890Z,23.77
2023-05-20T14:46:44.733Z,23.72
2023-05-20T14:51:01.750Z,23.66
2023-05-20T14:55:26.162Z,23.60
2023-05-20T14:59:44.460Z,23.65
2023-05-20T15:03:47.669Z,23.64
2023-05-20T15:08:03.005Z,23.57
2023-05-20T15:12:28.839Z,23.73
2023-05-20T15:16:57.686Z,23.61
2023-05-20T15:21:24.507Z,23.48
2023-05-20T15:25:58.371Z,23.46
2023-05-20T15:30:26.996Z,23.41
2023-05-20T15:35:02.898Z,23.36
2023-05-20T15:39:39.701Z,23.24
2023-05-20T15:43:57.750Z,23.19
2023-05-20T15:48:41.196Z,23.24
2023-05-20T15:53:40.624Z,23.18
2023-05-20T15:58:22.969Z,23.24
2023-05-20T16:03:08.300Z,23.28
2023-05-20T16:07:37.256Z,23.30
2023-05-20T16:12:04.563Z,23.13
2023-05-20T16:16:29.512Z,23.04
2023-05-20T16:20:53.600Z,22.98
2023-05-20T16:24:57.865Z,22.91
2023-05-20T16:29:00.766Z,22.87
2023-05-20T16:33:09.591Z,22.83
2023-05-20T16:37:18.336Z,22.76
2023-05-20T16:41:47.716Z,22.84
2023-05-20T16:45:50.580Z,22.80
2023-05-20T16:50:03.754Z,22.71
2023-05-20T16:54:08.247Z,22.61
2023-05-20T16:58:19.036Z,22.52
2023-05-20T17:02:22.128Z,22.45
2023-05-20T17:06:25.372Z,22.46
2023-05-20T17:10:28.902Z,22.36
2023-05-20T17:14:33.706Z,22.26
2023-05-20T17:18:37.135Z,22.04
2023-05-20T17:22:40.757Z,21.94
2023-05-20T17:26:49.483Z,21.77
2023-05-20T17:30:53.696Z,21.66
2023-05-20T17:35:08.377Z,21.47
2023-05-20T17:39:13.723Z,21.36
2023-05-20T17:43:16.609Z,21.23
2023-05-20T17:47:21.329Z,21.09
2023-05-20T17:51:25.122Z,20.97
2023-05-20T17:55:29.069Z,20.78
2023-05-20T17:59:33.814Z,20.71
2023-05-20T18:03:39.905Z,20.67
2023-05-20T18:07:43.280Z,20.66
2023-05-20T18:11:47.133Z,20.60
2023-05-20T18:15:51.020Z,20.60
2023-05-20T18:19:55.516Z,20.49
2023-05-20T18:23:59.493Z,20.48
2023-05-20T18:28:03.100Z,20.41
2023-05-20T18:32:07.033Z,20.27
2023-05-20T18:36:11.549Z,20.26
2023-05-20T18:40:15.047Z,20.33
2023-05-20T18:44:23.756Z,20.15
2023-05-20T18:48:27.563Z,20.10
2023-05-20T18:52:33.909Z,20.03
2023-05-20T18:56:38.110Z,19.95
2023-05-20T19:00:41.539Z,19.87
2023-05-20T19:05:05.512Z,19.81
2023-05-20T19:09:11.040Z,19.77
2023-05-20T19:13:14.109Z,19.71
2023-05-20T19:17:21.235Z,19.60
2023-05-20T19:21:24.918Z,19.54
2023-05-20T19:25:29.765Z,19.45
2023-05-20T19:29:38.792Z,19.44
2023-05-20T19:33:43.958Z,19.38
2023-05-20T19:37:48.410Z,19.30
2023-05-20T19:41:54.151Z,19.29
2023-05-20T19:45:57.464Z,19.26
2023-05-20T19:50:02.726Z,19.21
2023-05-20T19:54:06.664Z,19.14
2023-05-20T19:58:15.159Z,19.14
2023-05-20T20:02:18.241Z,19.04
2023-05-20T20:06:34.242Z,18.91
2023-05-20T20:10:51.089Z,18.78
2023-05-20T20:15:08.947Z,18.70
2023-05-20T20:19:11.856Z,18.66
2023-05-20T20:23:14.950Z,18.64
2023-05-20T20:27:19.147Z,18.65
2023-05-20T20:31:24.485Z,18.59
2023-05-20T20:35:27.895Z,18.54
2023-05-20T20:39:30.798Z,18.54
2023-05-20T20:43:34.761Z,18.53
2023-05-20T20:47:40.937Z,18.51
2023-05-20T20:51:45.401Z,18.49
2023-05-20T20:55:48.455Z,18.43
2023-05-20T20:59:53.901Z,18.40
2023-05-20T21:03:58.609Z,18.36
2023-05-20T21:08:13.277Z,18.34
2023-05-20T21:12:17.533Z,18.28
2023-05-20T21:16:21.400Z,18.28
2023-05-20T21:20:25.885Z,18.24
2023-05-20T21:24:28.962Z,18.23
2023-05-20T21:28:32.332Z,18.24
2023-05-20T21:32:35.777Z,18.23
2023-05-20T21:36:42.834Z,18.20
2023-05-20T21:40:45.578Z,18.18
2023-05-20T21:44:48.726Z,18.20
2023-05-20T21:49:07.039Z,18.17
2023-05-20T21:53:21.711Z,18.13
2023-05-20T21:57:25.169Z,18.11
2023-05-20T22:01:34.225Z,18.10
2023-05-20T22:05:49.801Z,18.01
2023-05-20T22:09:58.306Z,17.99
2023-05-20T22:14:02.132Z,17.86
2023-05-20T22:18:07.612Z,17.80
2023-05-20T22:22:11.807Z,17.80
2023-05-20T22:26:20.715Z,17.80
2023-05-20T22:30:23.767Z,17.77
2023-05-20T22:34:27.356Z,17.80
2023-05-20T22:38:37.634Z,17.77
2023-05-20T22:42:42.378Z,17.77
2023-05-20T22:46:46.099Z,17.67
2023-05-20T22:50:56.087Z,17.62
2023-05-20T22:55:01.770Z,17.61
2023-05-20T22:59:07.910Z,17.60
2023-05-20T23:03:12.095Z,17.58
2023-05-20T23:07:18.984Z,17.55
2023-05-20T23:11:21.902Z,17.53
2023-05-20T23:15:27.712Z,17.56
2023-05-20T23:19:34.147Z,17.50
2023-05-20T23:23:37.283Z,17.46
2023-05-20T23:27:42.114Z,17.42
2023-05-20T23:31:48.237Z,17.38
2023-05-20T23:35:53.115Z,17.31
2023-05-20T23:39:57.035Z,17.33
2023-05-20T23:44:00.009Z,17.31
2023-05-20T23:48:04.334Z,17.25
2023-05-20T23:52:07.973Z,17.25
2023-05-20T23:56:11.495Z,17.22
